Time;durP1;ratioP1;P1;durP2;ratioP2;P2;SDS_P1;SDS_P2;PMS_P1;PMS_P2;Temp;Humidity;BMP_temperature;BMP_pressure;BME280_temperature;BME280_humidity;BME280_pressure;Samples;Min_cycle;Max_cycle;Signal;HPM_P1;HPM_P2
2022/11/04 00:01:38;;;;;;;4.15;1.70;;;10.00;99.90;;;;;;5011134;28;20026;-65
2022/11/04 00:04:04;;;;;;;3.38;2.13;;;9.90;99.90;;;;;;4989965;28;20034;-65
2022/11/04 00:06:29;;;;;;;2.15;1.38;;;9.90;99.90;;;;;;5008058;28;20041;-64
2022/11/04 00:08:57;;;;;;;2.55;1.50;;;9.80;99.90;;;;;;5001136;23;20750;-67
2022/11/04 00:14:09;;;;;;;9.05;1.95;;;9.70;99.90;;;;;;5024716;28;20044;-67
2022/11/04 00:19:19;;;;;;;;;;;9.70;99.90;;;;;;5018600;28;20040;-65
2022/11/04 00:30:00;;;;;;;6.85;3.42;;;9.60;99.90;;;;;;5007422;28;20137;-66
2022/11/04 00:35:12;;;;;;;7.63;3.85;;;9.60;99.90;;;;;;5014760;28;20092;-67
2022/11/04 00:37:39;;;;;;;7.75;3.85;;;9.60;99.90;;;;;;5011370;28;20030;-67
2022/11/04 00:40:07;;;;;;;6.72;3.85;;;9.60;99.90;;;;;;5008660;28;20026;-66
2022/11/04 00:42:33;;;;;;;10.70;3.83;;;9.60;99.90;;;;;;5009406;28;20142;-66
2022/11/04 00:44:58;;;;;;;11.10;4.57;;;9.60;99.90;;;;;;5007192;28;20495;-67
2022/11/04 00:47:24;;;;;;;5.20;3.67;;;9.70;99.90;;;;;;5019224;28;20044;-66
2022/11/04 00:49:50;;;;;;;3.63;2.53;;;9.70;99.90;;;;;;5021043;28;20079;-66
2022/11/04 00:52:16;;;;;;;6.68;2.85;;;9.70;99.90;;;;;;5022342;28;20037;-66
2022/11/04 00:54:42;;;;;;;4.78;2.60;;;9.70;99.90;;;;;;5017017;28;20040;-67
2022/11/04 00:57:14;;;;;;;4.50;2.53;;;9.70;99.90;;;;;;4991928;28;20037;-67
2022/11/04 00:59:40;;;;;;;3.40;2.00;;;9.70;99.90;;;;;;5008504;28;20116;-67
2022/11/04 01:02:08;;;;;;;3.15;1.80;;;9.60;99.90;;;;;;5018160;28;20026;-67
2022/11/04 01:04:33;;;;;;;3.25;1.92;;;9.60;99.90;;;;;;5006089;28;20030;-67
2022/11/04 01:07:05;;;;;;;4.20;1.90;;;9.50;99.90;;;;;;4999303;28;21076;-66
2022/11/04 01:09:31;;;;;;;4.15;1.77;;;9.50;99.90;;;;;;4999406;28;20097;-66
2022/11/04 01:11:56;;;;;;;5.68;1.50;;;9.40;99.90;;;;;;5013874;28;20029;-67
2022/11/04 01:14:23;;;;;;;7.78;2.33;;;9.30;99.90;;;;;;5012965;28;20522;-67
2022/11/04 01:16:49;;;;;;;1.30;1.15;;;9.30;99.90;;;;;;5004897;28;20057;-66
2022/11/04 01:19:15;;;;;;;2.13;1.02;;;9.20;99.90;;;;;;5008540;28;20430;-67
2022/11/04 01:21:40;;;;;;;2.60;1.15;;;9.20;99.90;;;;;;5010458;28;20479;-66
2022/11/04 01:24:06;;;;;;;1.67;1.00;;;9.10;99.90;;;;;;5007579;28;20061;-65
2022/11/04 01:26:32;;;;;;;1.42;1.00;;;9.00;99.90;;;;;;5016893;28;20026;-68
2022/11/04 01:28:59;;;;;;;2.60;1.27;;;8.90;99.90;;;;;;5001336;28;20749;-66
2022/11/04 01:31:29;;;;;;;1.40;1.08;;;8.90;99.90;;;;;;5003552;28;20108;-67
2022/11/04 01:33:56;;;;;;;2.72;0.80;;;8.80;99.90;;;;;;5015578;28;20037;-67
2022/11/04 01:36:23;;;;;;;1.83;1.20;;;8.80;99.90;;;;;;5010988;28;20191;-68
2022/11/04 01:38:49;;;;;;;2.25;1.00;;;8.80;99.90;;;;;;5009673;28;20374;-66
2022/11/04 01:41:41;;;;;;;1.52;0.98;;;8.80;99.90;;;;;;5021715;28;20037;-66
2022/11/04 01:44:40;;;;;;;2.55;0.93;;;8.80;99.90;;;;;;5000862;28;20457;-68
2022/11/04 01:47:16;;;;;;;1.85;1.00;;;8.80;99.90;;;;;;5005641;28;20085;-66
2022/11/04 01:49:46;;;;;;;1.40;0.93;;;8.80;99.90;;;;;;5006859;28;20083;-66
2022/11/04 01:52:16;;;;;;;1.05;0.77;;;8.70;99.90;;;;;;5013383;28;20125;-66
2022/11/04 01:54:46;;;;;;;1.52;0.80;;;8.70;99.90;;;;;;5010471;28;20357;-67
2022/11/04 01:57:24;;;;;;;2.40;0.90;;;8.60;99.90;;;;;;5014580;28;20030;-66
2022/11/04 01:59:50;;;;;;;1.90;1.05;;;8.60;99.90;;;;;;5006121;28;20105;-67
2022/11/04 02:02:15;;;;;;;1.05;0.80;;;8.50;99.90;;;;;;5011643;28;20539;-68
2022/11/04 02:04:42;;;;;;;2.42;0.80;;;8.50;99.90;;;;;;5006192;28;20538;-67
2022/11/04 02:07:09;;;;;;;1.38;0.93;;;8.40;99.90;;;;;;5005155;28;20483;-67
2022/11/04 02:09:37;;;;;;;2.95;1.20;;;8.40;99.90;;;;;;5007351;28;20029;-66
2022/11/04 02:14:49;;;;;;;1.65;1.17;;;8.30;99.90;;;;;;5003275;28;20036;-67
2022/11/04 02:17:18;;;;;;;1.73;1.20;;;8.20;99.90;;;;;;5001317;28;20027;-66
2022/11/04 02:20:21;;;;;;;1.73;1.17;;;8.10;99.90;;;;;;5017151;28;20506;-67
2022/11/04 02:23:09;;;;;;;2.03;1.02;;;8.00;99.90;;;;;;5017835;28;20029;-66
2022/11/04 02:25:47;;;;;;;1.60;1.17;;;7.90;99.90;;;;;;5009888;28;20384;-67
2022/11/04 02:28:21;;;;;;;1.88;1.10;;;7.90;99.90;;;;;;5007844;28;20049;-66
2022/11/04 02:30:52;;;;;;;1.63;1.10;;;7.80;99.90;;;;;;5011387;28;20111;-67
2022/11/04 02:33:24;;;;;;;2.78;1.10;;;7.70;99.90;;;;;;5015069;28;20049;-67
2022/11/04 02:35:57;;;;;;;1.83;0.95;;;7.60;99.90;;;;;;5012761;28;20030;-66
2022/11/04 02:38:45;;;;;;;1.33;1.10;;;7.60;99.90;;;;;;5005563;28;20022;-67
2022/11/04 02:41:13;;;;;;;9.68;1.85;;;7.60;99.90;;;;;;5012310;28;20427;-67
2022/11/04 02:44:11;;;;;;;6.40;1.40;;;7.50;99.90;;;;;;5016384;28;20130;-66
2022/11/04 02:46:45;;;;;;;7.18;1.08;;;7.50;99.90;;;;;;5011065;28;20493;-66
2022/11/04 02:49:31;;;;;;;2.08;0.95;;;7.50;99.90;;;;;;5011780;28;20026;-67
2022/11/04 02:52:09;;;;;;;1.65;1.13;;;7.50;99.90;;;;;;5017949;28;20062;-67
2022/11/04 02:54:59;;;;;;;5.82;1.30;;;7.60;99.90;;;;;;5010852;28;20014;-67
2022/11/04 02:57:29;;;;;;;2.75;0.95;;;7.50;99.90;;;;;;5007775;28;20034;-67
2022/11/04 03:00:06;;;;;;;4.00;1.30;;;7.50;99.90;;;;;;5013073;28;20022;-67
2022/11/04 03:02:42;;;;;;;5.53;1.40;;;7.50;99.90;;;;;;5021047;28;21211;-68
2022/11/04 03:05:12;;;;;;;6.78;0.90;;;7.50;99.90;;;;;;5013811;28;20079;-67
2022/11/04 03:07:41;;;;;;;3.28;0.95;;;7.50;99.90;;;;;;5013893;28;20088;-68
2022/11/04 03:10:27;;;;;;;1.85;1.00;;;7.40;99.90;;;;;;5012676;28;20478;-68
2022/11/04 03:13:04;;;;;;;5.22;1.13;;;7.30;99.90;;;;;;5012948;28;20040;-67
2022/11/04 03:15:33;;;;;;;1.10;0.60;;;7.30;99.90;;;;;;5020065;28;20033;-67
2022/11/04 03:18:16;;;;;;;2.72;1.23;;;7.20;99.90;;;;;;5010258;28;20029;-66
2022/11/04 03:20:45;;;;;;;8.07;1.00;;;7.20;99.90;;;;;;5016216;28;20021;-66
2022/11/04 03:23:11;;;;;;;6.97;1.02;;;7.20;99.90;;;;;;5019276;28;20335;-66
2022/11/04 03:25:42;;;;;;;10.00;1.65;;;7.20;99.90;;;;;;5017178;28;20033;-67
2022/11/04 03:28:20;;;;;;;4.20;0.88;;;7.20;99.90;;;;;;5010667;28;20034;-67
2022/11/04 03:30:50;;;;;;;4.40;1.02;;;7.30;99.90;;;;;;5016206;28;20025;-68
2022/11/04 03:33:18;;;;;;;2.88;0.95;;;7.40;99.90;;;;;;5008935;28;20094;-67
2022/11/04 03:35:44;;;;;;;7.80;1.55;;;7.50;99.90;;;;;;5017487;28;20807;-66
2022/11/04 03:38:11;;;;;;;5.30;1.92;;;7.50;99.90;;;;;;5014899;28;20064;-68
2022/11/04 03:40:36;;;;;;;1.30;0.75;;;7.60;99.90;;;;;;5020199;28;20488;-67
2022/11/04 03:43:10;;;;;;;4.03;0.93;;;7.50;99.90;;;;;;5013915;28;20040;-67
2022/11/04 03:45:36;;;;;;;4.05;0.98;;;7.50;99.90;;;;;;5013572;28;20037;-67
2022/11/04 03:48:02;;;;;;;7.90;2.33;;;7.40;99.90;;;;;;5014375;28;20038;-68
2022/11/04 03:50:38;;;;;;;2.33;1.00;;;7.30;99.90;;;;;;5009073;28;20476;-67
2022/11/04 03:53:03;;;;;;;6.03;0.98;;;7.20;99.90;;;;;;5004765;28;20045;-66
2022/11/04 03:55:58;;;;;;;5.00;1.08;;;7.10;99.90;;;;;;5016477;28;20052;-66
2022/11/04 03:58:59;;;;;;;4.78;1.55;;;7.10;99.90;;;;;;5016894;28;20036;-66
2022/11/04 04:01:45;;;;;;;11.75;1.30;;;7.00;99.90;;;;;;4982199;28;20449;-66
2022/11/04 04:04:26;;;;;;;1.95;0.90;;;6.90;99.90;;;;;;5007415;28;20033;-67
2022/11/04 04:06:55;;;;;;;8.48;1.23;;;6.80;99.90;;;;;;5006878;28;20101;-68
2022/11/04 04:09:37;;;;;;;3.38;1.27;;;6.80;99.90;;;;;;5005111;28;20113;-67
2022/11/04 04:12:39;;;;;;;4.57;0.95;;;6.70;99.90;;;;;;5005033;28;20053;-68
2022/11/04 04:15:15;;;;;;;6.28;1.45;;;6.60;99.90;;;;;;5014587;28;20090;-67
2022/11/04 04:17:51;;;;;;;4.10;1.00;;;6.60;99.90;;;;;;5013211;28;20017;-68
2022/11/04 04:20:21;;;;;;;0.98;0.70;;;6.70;99.90;;;;;;5018213;28;20022;-69
2022/11/04 04:28:52;;;;;;;5.10;1.45;;;6.80;99.90;;;;;;5009820;28;20041;-67
2022/11/04 04:31:48;;;;;;;4.82;1.20;;;6.80;99.90;;;;;;5008935;28;20041;-66
2022/11/04 04:34:05;;;;;;;2.17;1.10;;;6.70;99.90;;;;;;5019775;28;20040;-66
2022/11/04 04:36:37;;;;;;;3.17;1.10;;;6.60;99.90;;;;;;5018344;28;20026;-67
2022/11/04 04:47:23;;;;;;;4.85;1.35;;;6.60;99.90;;;;;;5011768;28;20092;-67
2022/11/04 04:49:53;;;;;;;4.55;1.02;;;6.70;99.90;;;;;;5012509;28;20109;-67
2022/11/04 04:52:20;;;;;;;3.67;0.70;;;6.70;99.90;;;;;;5009171;28;20113;-66
2022/11/04 04:54:46;;;;;;;2.63;1.20;;;6.70;99.90;;;;;;5025406;28;20029;-67
2022/11/04 04:57:12;;;;;;;3.63;1.17;;;6.70;99.90;;;;;;5009646;28;20022;-67
2022/11/04 04:59:37;;;;;;;7.68;1.38;;;6.70;99.90;;;;;;5004793;28;20091;-67
2022/11/04 05:02:03;;;;;;;32.92;1.73;;;6.70;99.90;;;;;;5009309;28;20052;-67
2022/11/04 05:04:28;;;;;;;4.18;1.23;;;6.70;99.90;;;;;;5012652;28;20030;-67
2022/11/04 05:06:54;;;;;;;1.88;1.02;;;6.60;99.90;;;;;;5003100;28;20614;-67
2022/11/04 05:09:20;;;;;;;3.03;1.10;;;6.50;99.90;;;;;;5008365;28;20038;-67
2022/11/04 05:11:45;;;;;;;2.58;1.10;;;6.50;99.90;;;;;;5004688;28;20392;-67
2022/11/04 05:14:11;;;;;;;4.22;1.23;;;6.40;99.90;;;;;;5013134;28;20424;-68
2022/11/04 05:16:36;;;;;;;2.72;0.82;;;6.30;99.90;;;;;;5018305;28;20041;-67
2022/11/04 05:19:02;;;;;;;2.80;1.42;;;6.30;99.90;;;;;;5018974;28;20033;-68
2022/11/04 05:21:27;;;;;;;8.75;1.15;;;6.20;99.90;;;;;;5005480;28;20543;-65
2022/11/04 05:23:53;;;;;;;10.30;2.20;;;6.20;99.90;;;;;;5017485;28;20119;-68
2022/11/04 05:26:19;;;;;;;22.88;6.55;;;6.20;99.90;;;;;;5016389;28;20025;-66
2022/11/04 05:28:45;;;;;;;12.85;4.50;;;6.20;99.90;;;;;;5017423;28;20105;-66
2022/11/04 05:31:10;;;;;;;11.82;7.07;;;6.20;99.90;;;;;;5015365;28;20483;-66
2022/11/04 05:33:36;;;;;;;32.55;15.35;;;6.20;99.90;;;;;;4999550;28;20025;-67
2022/11/04 05:36:09;;;;;;;65.10;30.42;;;6.20;99.90;;;;;;5019135;28;20087;-67
2022/11/04 05:38:34;;;;;;;55.47;27.20;;;6.30;99.90;;;;;;5011707;28;20030;-67
2022/11/04 05:41:00;;;;;;;24.55;11.82;;;6.30;99.90;;;;;;5005824;28;20041;-67
2022/11/04 05:43:25;;;;;;;21.05;10.05;;;6.30;99.90;;;;;;5027051;28;20032;-67
2022/11/04 05:45:51;;;;;;;19.05;8.45;;;6.30;99.90;;;;;;5009200;28;20022;-66
2022/11/04 05:48:16;;;;;;;25.92;11.07;;;6.20;99.90;;;;;;5011497;28;20538;-68
2022/11/04 05:50:42;;;;;;;24.63;11.30;;;6.20;99.90;;;;;;5009858;28;20027;-67
2022/11/04 05:53:08;;;;;;;21.20;7.78;;;6.20;99.90;;;;;;5004094;28;20026;-67
2022/11/04 05:55:33;;;;;;;19.35;7.25;;;6.10;99.90;;;;;;5012595;28;20445;-68
2022/11/04 05:57:59;;;;;;;11.13;5.03;;;6.00;99.90;;;;;;5022130;28;20022;-66
2022/11/04 06:00:26;;;;;;;12.60;4.05;;;6.00;99.90;;;;;;5019739;28;20014;-68
2022/11/04 06:02:51;;;;;;;4.63;2.63;;;6.00;99.90;;;;;;5015996;28;20068;-69
2022/11/04 06:05:17;;;;;;;9.73;2.83;;;5.90;99.90;;;;;;5017944;28;20088;-67
2022/11/04 06:07:42;;;;;;;5.90;2.88;;;5.90;99.90;;;;;;5014904;28;20092;-68
2022/11/04 06:10:08;;;;;;;11.93;2.72;;;5.90;99.90;;;;;;5016721;28;20430;-69
2022/11/04 06:12:34;;;;;;;5.55;3.05;;;5.90;99.90;;;;;;5003366;28;20091;-68
2022/11/04 06:17:27;;;;;;;7.55;1.90;;;5.90;99.90;;;;;;5054808;28;20549;-67
2022/11/04 06:19:53;;;;;;;6.32;1.83;;;5.90;99.90;;;;;;5062229;28;20021;-67
2022/11/04 06:22:19;;;;;;;9.25;2.35;;;5.90;99.90;;;;;;5050467;28;20514;-66
2022/11/04 06:24:44;;;;;;;15.43;4.80;;;5.90;99.90;;;;;;5045293;28;20031;-67
2022/11/04 06:27:11;;;;;;;17.00;6.47;;;5.90;99.90;;;;;;5052597;28;20024;-67
2022/11/04 06:29:40;;;;;;;12.95;4.93;;;6.00;99.90;;;;;;5052599;28;20090;-66
2022/11/04 06:32:07;;;;;;;10.20;2.83;;;6.00;99.90;;;;;;5052536;28;20060;-67
2022/11/04 06:34:33;;;;;;;7.65;2.67;;;5.90;99.90;;;;;;5048734;28;20035;-67
2022/11/04 06:36:58;;;;;;;8.98;1.25;;;5.90;99.90;;;;;;5060325;28;20021;-67
2022/11/04 06:39:24;;;;;;;9.10;3.05;;;5.90;99.90;;;;;;5040417;28;20016;-67
2022/11/04 06:41:49;;;;;;;9.48;4.22;;;6.00;99.90;;;;;;5047348;28;20056;-67
2022/11/04 06:44:15;;;;;;;10.20;2.92;;;6.00;99.90;;;;;;5021204;28;20045;-67
2022/11/04 06:46:42;;;;;;;9.55;3.00;;;6.00;99.90;;;;;;5058346;28;20190;-67
2022/11/04 06:49:16;;;;;;;8.57;3.08;;;5.90;99.90;;;;;;5060955;28;20421;-68
2022/11/04 06:51:43;;;;;;;6.47;1.90;;;6.00;99.90;;;;;;5049334;28;20111;-67
2022/11/04 06:54:09;;;;;;;5.75;1.50;;;6.00;99.90;;;;;;5036602;28;20131;-67
2022/11/04 06:56:35;;;;;;;15.65;2.90;;;6.10;99.90;;;;;;5037371;28;20075;-67
2022/11/04 06:59:01;;;;;;;6.85;2.35;;;6.10;99.90;;;;;;5047603;28;20029;-67
2022/11/04 07:01:31;;;;;;;13.25;2.20;;;6.20;99.90;;;;;;5038422;28;20040;-67
2022/11/04 07:03:58;;;;;;;12.45;2.95;;;6.20;99.90;;;;;;5045249;28;20026;-67
2022/11/04 07:06:24;;;;;;;10.68;2.58;;;6.30;99.90;;;;;;5051174;28;20395;-67
2022/11/04 07:08:51;;;;;;;6.22;2.10;;;6.40;99.90;;;;;;5043367;28;20041;-66
2022/11/04 07:11:20;;;;;;;9.75;2.22;;;6.50;99.90;;;;;;5041601;28;20116;-66
2022/11/04 07:13:46;;;;;;;7.78;2.03;;;6.70;99.90;;;;;;5046965;28;20108;-66
2022/11/04 07:16:12;;;;;;;14.38;1.60;;;6.80;99.90;;;;;;5039616;28;20079;-67
2022/11/04 07:18:37;;;;;;;10.25;2.53;;;6.90;99.90;;;;;;5039937;28;20018;-66
2022/11/04 07:21:03;;;;;;;5.78;1.80;;;6.90;99.90;;;;;;5036241;28;20061;-66
2022/11/04 07:23:29;;;;;;;6.65;2.42;;;7.10;99.90;;;;;;5052090;28;20032;-66
2022/11/04 07:26:03;;;;;;;6.72;1.80;;;7.10;99.90;;;;;;5054222;28;20025;-66
2022/11/04 07:28:28;;;;;;;6.05;1.30;;;7.20;99.90;;;;;;5064849;28;20547;-65
2022/11/04 07:30:56;;;;;;;5.65;1.48;;;7.30;99.90;;;;;;5040027;28;20037;-67
2022/11/04 07:33:22;;;;;;;7.55;1.52;;;7.30;99.90;;;;;;5042506;28;20132;-66
2022/11/04 07:35:48;;;;;;;4.45;1.60;;;7.40;99.90;;;;;;5045861;28;20020;-66
2022/11/04 07:38:13;;;;;;;3.45;1.27;;;7.50;99.90;;;;;;5041414;28;20030;-67
2022/11/04 07:40:39;;;;;;;8.43;1.50;;;7.60;99.90;;;;;;5045973;28;20037;-66
2022/11/04 07:43:05;;;;;;;9.98;1.30;;;7.60;99.90;;;;;;5055732;28;20072;-66
2022/11/04 07:45:31;;;;;;;7.32;1.95;;;7.70;99.90;;;;;;5015545;28;20037;-66
2022/11/04 07:47:57;;;;;;;7.63;1.85;;;7.70;99.90;;;;;;5044368;28;20036;-66
2022/11/04 07:50:22;;;;;;;7.30;1.55;;;7.80;99.90;;;;;;5043270;28;20525;-66
2022/11/04 07:52:49;;;;;;;8.75;1.40;;;7.80;99.90;;;;;;5050929;28;20044;-66
2022/11/04 07:55:17;;;;;;;6.55;1.52;;;7.90;99.90;;;;;;5045933;28;20021;-66
2022/11/04 07:57:46;;;;;;;4.47;1.73;;;7.90;99.90;;;;;;5043268;28;20107;-66
2022/11/04 08:00:14;;;;;;;10.35;2.03;;;8.00;99.90;;;;;;5037200;28;20033;-66
2022/11/04 08:02:40;;;;;;;7.03;1.40;;;8.00;99.90;;;;;;5048804;28;20021;-66
2022/11/04 08:05:07;;;;;;;4.80;1.58;;;8.00;99.90;;;;;;5038707;28;20025;-66
2022/11/04 08:07:32;;;;;;;5.00;1.48;;;8.10;99.90;;;;;;5044917;28;20048;-67
2022/11/04 08:09:58;;;;;;;6.22;1.35;;;8.20;99.90;;;;;;5044560;28;20022;-67
2022/11/04 08:12:24;;;;;;;7.80;2.30;;;8.30;99.90;;;;;;5040199;28;20029;-67
2022/11/04 08:14:50;;;;;;;7.35;1.95;;;8.30;99.90;;;;;;5038926;28;20124;-67
2022/11/04 08:17:16;;;;;;;7.90;2.83;;;8.40;99.90;;;;;;5045494;28;20029;-66
2022/11/04 08:19:42;;;;;;;5.38;1.73;;;8.50;99.90;;;;;;5036569;28;20040;-67
2022/11/04 08:22:08;;;;;;;4.10;1.75;;;8.60;99.90;;;;;;5050375;28;20142;-66
2022/11/04 08:24:34;;;;;;;1.67;1.17;;;8.70;99.90;;;;;;5057407;28;20063;-67
2022/11/04 08:27:00;;;;;;;5.03;1.80;;;8.90;99.90;;;;;;5050534;28;20495;-67
2022/11/04 08:29:25;;;;;;;4.40;1.30;;;8.90;99.90;;;;;;5049127;28;20056;-66
2022/11/04 08:31:51;;;;;;;5.20;1.50;;;9.00;99.90;;;;;;5040563;28;20726;-66
2022/11/04 08:34:17;;;;;;;5.45;1.42;;;9.10;99.90;;;;;;5058799;28;20024;-66
2022/11/04 08:36:43;;;;;;;4.13;1.65;;;9.20;99.90;;;;;;5031089;28;20108;-67
2022/11/04 08:39:10;;;;;;;8.68;2.60;;;9.10;99.90;;;;;;5041797;28;20025;-67
2022/11/04 08:41:39;;;;;;;5.88;2.50;;;9.30;99.90;;;;;;5062606;28;20074;-66
2022/11/04 08:44:05;;;;;;;6.75;2.38;;;9.40;99.90;;;;;;5046830;28;20025;-66
2022/11/04 08:46:35;;;;;;;3.92;1.70;;;9.40;99.90;;;;;;5024051;28;20049;-66
2022/11/04 08:49:01;;;;;;;11.32;2.50;;;9.50;99.90;;;;;;5050131;28;20389;-67
2022/11/04 08:51:29;;;;;;;4.18;1.77;;;9.50;99.90;;;;;;5046001;28;20581;-66
2022/11/04 08:53:55;;;;;;;5.13;1.92;;;9.60;99.90;;;;;;5038244;28;20512;-67
2022/11/04 08:56:26;;;;;;;7.03;2.55;;;9.80;99.90;;;;;;5050884;28;20021;-67
2022/11/04 08:58:52;;;;;;;5.97;1.65;;;10.00;99.90;;;;;;5041330;28;20017;-66
2022/11/04 09:01:20;;;;;;;5.75;2.25;;;10.20;99.90;;;;;;5038452;28;20487;-66
2022/11/04 09:03:46;;;;;;;2.15;1.38;;;10.20;99.90;;;;;;5039140;28;20029;-67
2022/11/04 09:06:16;;;;;;;9.40;1.83;;;10.20;99.90;;;;;;5039365;28;20111;-67
2022/11/04 09:08:42;;;;;;;7.07;2.15;;;10.20;99.90;;;;;;5038781;28;20059;-67
2022/11/04 09:11:11;;;;;;;5.72;2.92;;;10.40;99.90;;;;;;5039551;28;20119;-67
2022/11/04 09:13:37;;;;;;;8.63;2.35;;;10.70;99.90;;;;;;5053342;28;20040;-67
2022/11/04 09:16:04;;;;;;;4.28;1.45;;;10.60;99.90;;;;;;5042078;28;20462;-67
2022/11/04 09:18:31;;;;;;;7.55;2.00;;;10.60;99.90;;;;;;5027833;28;20052;-66
2022/11/04 09:21:04;;;;;;;6.55;1.45;;;10.70;99.90;;;;;;5040272;28;20060;-67
2022/11/04 09:23:30;;;;;;;10.88;1.60;;;11.00;99.90;;;;;;5045591;28;20372;-67
2022/11/04 09:25:57;;;;;;;2.70;1.55;;;11.20;99.90;;;;;;5048629;28;20029;-67
2022/11/04 09:28:23;;;;;;;2.33;1.25;;;11.50;99.90;;;;;;5041137;28;20041;-66
2022/11/04 09:30:49;;;;;;;12.05;2.22;;;11.80;99.90;;;;;;5033837;28;20018;-66
2022/11/04 09:33:15;;;;;;;3.85;1.25;;;12.10;99.90;;;;;;5055357;28;20479;-67
2022/11/04 09:35:41;;;;;;;4.60;1.83;;;12.00;99.90;;;;;;5057240;28;20106;-67
2022/11/04 09:38:07;;;;;;;4.10;1.50;;;12.20;99.90;;;;;;5039364;28;20037;-66
2022/11/04 09:40:35;;;;;;;4.95;1.73;;;12.40;99.90;;;;;;5043391;28;20111;-67
2022/11/04 09:43:09;;;;;;;6.80;1.50;;;12.50;99.90;;;;;;5042129;28;20087;-66
2022/11/04 09:45:39;;;;;;;8.43;1.90;;;12.60;99.90;;;;;;5012659;28;20040;-67
2022/11/04 09:48:22;;;;;;;6.20;1.73;;;12.50;99.90;;;;;;5041284;28;20086;-67
2022/11/04 09:50:52;;;;;;;7.72;2.00;;;12.40;99.90;;;;;;5029700;28;20048;-67
2022/11/04 09:53:31;;;;;;;3.50;1.77;;;12.20;99.90;;;;;;5034176;28;20491;-67
2022/11/04 09:56:01;;;;;;;9.18;2.70;;;12.00;99.90;;;;;;5037683;28;20025;-67
2022/11/04 09:58:32;;;;;;;3.70;2.10;;;12.00;99.90;;;;;;5043352;28;20079;-67
2022/11/04 10:01:08;;;;;;;3.25;1.10;;;12.20;99.90;;;;;;5039165;28;20398;-66
2022/11/04 10:03:52;;;;;;;5.40;1.50;;;12.30;99.90;;;;;;5043770;28;20083;-67
2022/11/04 10:06:47;;;;;;;8.05;2.25;;;12.50;99.90;;;;;;5043102;28;20092;-67
2022/11/04 10:09:16;;;;;;;;;;;12.60;99.90;;;;;;5034214;28;20047;-67
2022/11/04 10:12:12;;;;;;;5.97;1.83;;;12.60;99.90;;;;;;5013837;28;19912;-67
2022/11/04 10:14:48;;;;;;;3.72;1.13;;;12.70;99.90;;;;;;5046307;28;20029;-67
2022/11/04 10:17:21;;;;;;;4.22;1.55;;;12.80;99.90;;;;;;5040259;28;20033;-67
2022/11/04 10:20:05;;;;;;;4.45;1.67;;;13.00;99.90;;;;;;5041548;28;20036;-67
2022/11/04 10:22:41;;;;;;;7.68;1.42;;;13.00;99.90;;;;;;5044890;28;20064;-67
2022/11/04 10:25:12;;;;;;;4.85;1.40;;;13.20;99.90;;;;;;5043838;28;20033;-67
2022/11/04 10:27:42;;;;;;;3.67;1.38;;;13.40;99.90;;;;;;5044150;28;20045;-67
2022/11/04 10:30:22;;;;;;;4.72;1.48;;;13.30;99.90;;;;;;5030452;28;20025;-67
2022/11/04 10:33:17;;;;;;;4.35;1.60;;;13.50;99.90;;;;;;5042857;28;20037;-68
2022/11/04 10:36:09;;;;;;;3.97;1.48;;;13.50;99.90;;;;;;5041989;28;20030;-67
2022/11/04 10:38:56;;;;;;;3.83;1.17;;;13.40;99.90;;;;;;5028956;28;20032;-66
2022/11/04 10:41:34;;;;;;;4.97;1.02;;;13.40;99.90;;;;;;5047691;28;20026;-67
2022/11/04 10:44:19;;;;;;;7.00;1.73;;;13.50;99.90;;;;;;5055762;28;20032;-66
2022/11/04 10:47:08;;;;;;;5.55;1.48;;;13.60;99.90;;;;;;5020830;28;20087;-66
2022/11/04 10:49:36;;;;;;;9.07;2.47;;;13.60;99.90;;;;;;5051991;28;20024;-67
2022/11/04 10:52:02;;;;;;;4.50;1.60;;;13.80;99.90;;;;;;5048777;28;20039;-67
2022/11/04 10:54:33;;;;;;;1.98;0.82;;;13.90;99.90;;;;;;5058081;28;20025;-67
2022/11/04 10:56:58;;;;;;;2.05;1.48;;;13.80;99.90;;;;;;5041929;28;20071;-66
2022/11/04 10:59:28;;;;;;;4.47;1.10;;;13.80;99.90;;;;;;5040601;28;20037;-67
2022/11/04 11:01:56;;;;;;;4.13;1.42;;;13.60;99.90;;;;;;5036568;28;20072;-66
2022/11/04 11:04:40;;;;;;;5.50;1.80;;;13.60;99.90;;;;;;5039229;28;20029;-67
2022/11/04 11:07:08;;;;;;;5.78;1.20;;;13.60;99.90;;;;;;5038796;28;20029;-67
2022/11/04 11:09:40;;;;;;;5.40;1.02;;;13.50;99.90;;;;;;5042014;28;20021;-67
2022/11/04 11:12:27;;;;;;;6.05;1.67;;;13.50;99.90;;;;;;5051697;28;20107;-66
2022/11/04 11:14:53;;;;;;;6.18;1.10;;;13.40;99.90;;;;;;5034454;28;20017;-66
2022/11/04 11:17:41;;;;;;;2.63;1.23;;;13.60;99.90;;;;;;5023582;28;20103;-67
2022/11/04 11:20:13;;;;;;;4.35;1.15;;;13.80;99.90;;;;;;5050870;28;20021;-67
2022/11/04 11:22:40;;;;;;;4.90;1.85;;;13.90;99.90;;;;;;5044090;28;20048;-67
2022/11/04 11:25:27;;;;;;;3.70;1.90;;;13.80;99.90;;;;;;5045592;28;20040;-66
2022/11/04 11:28:00;;;;;;;4.68;2.10;;;13.70;99.90;;;;;;5038486;28;20094;-67
2022/11/04 11:30:35;;;;;;;12.32;3.42;;;13.70;99.90;;;;;;5020996;28;20068;-67
2022/11/04 11:33:07;;;;;;;11.23;2.45;;;13.60;99.90;;;;;;5035776;28;20033;-67
2022/11/04 11:35:41;;;;;;;2.83;1.45;;;13.60;99.90;;;;;;5051618;28;20032;-67
2022/11/04 11:38:19;;;;;;;5.43;1.95;;;13.60;99.90;;;;;;5056175;28;20028;-67
2022/11/04 11:40:46;;;;;;;6.78;2.70;;;13.70;99.90;;;;;;5053583;28;20021;-67
2022/11/04 11:43:23;;;;;;;7.43;1.55;;;13.80;99.90;;;;;;5052580;28;20040;-67
2022/11/04 11:45:50;;;;;;;13.13;5.22;;;13.90;99.90;;;;;;5027726;28;20041;-67
2022/11/04 11:48:49;;;;;;;28.23;13.18;;;13.70;99.90;;;;;;5050446;28;20033;-67
2022/11/04 11:51:23;;;;;;;4.72;1.73;;;13.60;99.90;;;;;;5042464;28;20118;-67
2022/11/04 11:54:07;;;;;;;;;;;13.50;99.90;;;;;;5022545;28;20038;-67
2022/11/04 11:56:42;;;;;;;2.58;1.58;;;13.50;99.90;;;;;;5038133;28;19916;-67
2022/11/04 11:59:19;;;;;;;2.88;1.40;;;13.50;99.90;;;;;;5013979;28;20087;-67
2022/11/04 12:01:50;;;;;;;2.35;1.02;;;13.60;99.90;;;;;;5018883;28;20079;-67
2022/11/04 12:04:19;;;;;;;2.25;1.25;;;13.60;99.90;;;;;;5017024;28;20168;-67
2022/11/04 12:07:07;;;;;;;12.82;5.72;;;13.70;99.90;;;;;;5012773;28;20026;-67
2022/11/04 12:09:32;;;;;;;8.77;4.82;;;13.60;99.90;;;;;;5024581;28;20049;-67
2022/11/04 12:12:07;;;;;;;5.35;2.45;;;13.60;99.90;;;;;;5028372;28;20026;-66
2022/11/04 12:14:45;;;;;;;5.63;1.95;;;13.70;99.90;;;;;;5049952;28;20025;-67
2022/11/04 12:17:45;;;;;;;2.22;1.02;;;13.80;99.90;;;;;;5021276;28;20032;-66
2022/11/04 12:20:40;;;;;;;4.60;1.05;;;13.70;99.90;;;;;;4979801;28;20041;-67
2022/11/04 12:23:27;;;;;;;1.73;0.75;;;13.80;99.90;;;;;;5031919;28;20078;-66
2022/11/04 12:26:01;;;;;;;3.05;1.13;;;13.90;99.90;;;;;;5018757;28;20049;-66
2022/11/04 12:28:59;;;;;;;2.22;1.00;;;13.80;99.90;;;;;;5032214;28;20421;-66
2022/11/04 12:31:43;;;;;;;4.70;1.75;;;13.70;99.90;;;;;;5033688;28;20052;-66
2022/11/04 12:34:24;;;;;;;4.95;1.48;;;13.40;99.90;;;;;;5017337;28;20030;-66
2022/11/04 12:36:55;;;;;;;3.90;0.90;;;13.30;99.90;;;;;;5029134;28;20505;-66
2022/11/04 12:39:45;;;;;;;5.63;1.25;;;13.00;99.90;;;;;;5031283;28;20045;-67
2022/11/04 12:42:43;;;;;;;4.20;1.17;;;13.00;99.90;;;;;;5040148;28;20032;-66
2022/11/04 12:45:20;;;;;;;1.95;1.20;;;13.00;99.90;;;;;;4965572;28;20044;-67
2022/11/04 12:47:49;;;;;;;3.28;1.25;;;12.90;99.90;;;;;;4998740;28;20034;-66
2022/11/04 12:50:26;;;;;;;4.68;1.13;;;12.90;99.90;;;;;;4999275;28;20096;-66
2022/11/04 12:53:12;;;;;;;1.80;0.98;;;12.90;99.90;;;;;;4991130;28;20026;-66
2022/11/04 12:55:55;;;;;;;8.45;1.38;;;12.90;99.90;;;;;;5003019;28;20025;-66
2022/11/04 12:58:36;;;;;;;4.65;1.25;;;12.90;99.90;;;;;;4989897;28;20045;-67
2022/11/04 13:01:09;;;;;;;3.53;1.00;;;13.00;99.90;;;;;;4997730;28;20076;-66
2022/11/04 13:03:44;;;;;;;3.70;1.10;;;13.10;99.90;;;;;;4994382;28;20050;-66
2022/11/04 13:06:16;;;;;;;2.42;1.40;;;13.20;99.90;;;;;;5007058;28;20080;-66
2022/11/04 13:09:11;;;;;;;2.88;1.20;;;13.20;99.90;;;;;;4996262;28;20029;-66
2022/11/04 13:12:00;;;;;;;3.15;1.10;;;13.30;99.90;;;;;;4986194;28;20038;-66
2022/11/04 13:14:28;;;;;;;4.40;1.30;;;13.20;99.90;;;;;;4996514;28;20089;-67
2022/11/04 13:17:07;;;;;;;3.38;1.60;;;13.20;99.90;;;;;;4999826;28;20392;-66
2022/11/04 13:19:50;;;;;;;2.28;1.25;;;13.20;99.90;;;;;;4990473;28;20069;-66
2022/11/04 13:22:37;;;;;;;4.10;1.87;;;13.30;99.90;;;;;;4992687;28;20089;-67
2022/11/04 13:25:11;;;;;;;1.52;0.90;;;13.20;99.90;;;;;;4997651;28;20031;-66
2022/11/04 13:27:43;;;;;;;3.15;1.08;;;13.20;99.90;;;;;;4999369;28;20026;-67
2022/11/04 13:30:20;;;;;;;2.55;1.35;;;13.30;99.90;;;;;;4996538;28;20527;-66
2022/11/04 13:32:58;;;;;;;4.50;1.33;;;13.20;99.90;;;;;;4995330;28;20022;-67
2022/11/04 13:35:52;;;;;;;3.47;1.55;;;13.20;99.90;;;;;;4995012;28;20502;-66
2022/11/04 13:38:59;;;;;;;5.60;1.35;;;13.10;99.90;;;;;;5002082;28;20108;-66
2022/11/04 13:42:03;;;;;;;2.55;1.45;;;13.20;99.90;;;;;;4990917;28;20117;-66
2022/11/04 13:44:34;;;;;;;7.38;1.85;;;13.10;99.90;;;;;;4914668;29;20036;-67
2022/11/04 13:47:11;;;;;;;3.28;2.25;;;13.00;99.90;;;;;;4962595;28;20042;-66
2022/11/04 13:49:37;;;;;;;3.28;1.60;;;13.00;99.90;;;;;;5008527;28;20093;-66
2022/11/04 13:52:10;;;;;;;6.03;1.95;;;12.80;99.90;;;;;;4994777;28;20049;-67
2022/11/04 13:54:58;;;;;;;6.40;2.30;;;12.70;99.90;;;;;;5004326;28;20019;-66